sensor_id;sensor_type;location;lat;lon;timestamp;pressure;altitude;pressure_sealevel;temperature;humidity
16834;BME280;8533;48.426;10.868;2023-01-28T00:01:57;96528.58;;;-1.63;100.00
16834;BME280;8533;48.426;10.868;2023-01-28T00:04:24;96532.43;;;-1.63;100.00
16834;BME280;8533;48.426;10.868;2023-01-28T00:06:52;96527.29;;;-1.59;100.00
16834;BME280;8533;48.426;10.868;2023-01-28T00:09:19;96524.73;;;-1.63;100.00
16834;BME280;8533;48.426;10.868;2023-01-28T00:11:47;96533.69;;;-1.67;100.00
16834;BME280;8533;48.426;10.868;2023-01-28T00:14:14;96536.89;;;-1.69;100.00
16834;BME280;8533;48.426;10.868;2023-01-28T00:16:42;96529.52;;;-1.68;100.00
16834;BME280;8533;48.426;10.868;2023-01-28T00:19:09;96531.78;;;-1.65;100.00
16834;BME280;8533;48.426;10.868;2023-01-28T00:21:37;96531.61;;;-1.68;100.00
16834;BME280;8533;48.426;10.868;2023-01-28T00:24:04;96526.64;;;-1.73;100.00
16834;BME280;8533;48.426;10.868;2023-01-28T00:26:34;96526.02;;;-1.71;100.00
16834;BME280;8533;48.426;10.868;2023-01-28T00:29:02;96533.37;;;-1.68;100.00
16834;BME280;8533;48.426;10.868;2023-01-28T00:31:29;96527.28;;;-1.75;100.00
16834;BME280;8533;48.426;10.868;2023-01-28T00:33:57;96530.97;;;-1.74;100.00
16834;BME280;8533;48.426;10.868;2023-01-28T00:36:25;96528.23;;;-1.76;100.00
16834;BME280;8533;48.426;10.868;2023-01-28T00:38:57;96526.64;;;-1.73;100.00
16834;BME280;8533;48.426;10.868;2023-01-28T00:41:27;96529.53;;;-1.72;100.00
16834;BME280;8533;48.426;10.868;2023-01-28T00:43:55;96527.28;;;-1.79;100.00
16834;BME280;8533;48.426;10.868;2023-01-28T00:46:23;96531.91;;;-1.83;100.00
16834;BME280;8533;48.426;10.868;2023-01-28T00:48:52;96529.84;;;-1.79;100.00
16834;BME280;8533;48.426;10.868;2023-01-28T00:51:20;96529.05;;;-1.80;100.00
16834;BME280;8533;48.426;10.868;2023-01-28T00:53:48;96527.92;;;-1.81;100.00
16834;BME280;8533;48.426;10.868;2023-01-28T00:56:16;96523.92;;;-1.80;100.00
16834;BME280;8533;48.426;10.868;2023-01-28T00:58:44;96526.96;;;-1.80;100.00
16834;BME280;8533;48.426;10.868;2023-01-28T01:01:25;96528.88;;;-1.82;100.00
16834;BME280;8533;48.426;10.868;2023-01-28T01:03:49;96528.23;;;-1.76;100.00
16834;BME280;8533;48.426;10.868;2023-01-28T01:06:18;96533.03;;;-1.77;100.00
16834;BME280;8533;48.426;10.868;2023-01-28T01:08:47;96541.37;;;-1.75;100.00
16834;BME280;8533;48.426;10.868;2023-01-28T01:11:16;96536.90;;;-1.73;100.00
16834;BME280;8533;48.426;10.868;2023-01-28T01:13:43;96538.50;;;-1.80;100.00
16834;BME280;8533;48.426;10.868;2023-01-28T01:16:13;96536.88;;;-1.77;100.00
16834;BME280;8533;48.426;10.868;2023-01-28T01:18:43;96542.66;;;-1.75;100.00
16834;BME280;8533;48.426;10.868;2023-01-28T01:21:13;96541.55;;;-1.73;100.00
16834;BME280;8533;48.426;10.868;2023-01-28T01:23:41;96548.11;;;-1.74;100.00
16834;BME280;8533;48.426;10.868;2023-01-28T01:26:09;96542.02;;;-1.69;100.00
16834;BME280;8533;48.426;10.868;2023-01-28T01:28:37;96546.84;;;-1.70;100.00
16834;BME280;8533;48.426;10.868;2023-01-28T01:31:07;96539.46;;;-1.73;100.00
16834;BME280;8533;48.426;10.868;2023-01-28T01:33:35;96541.88;;;-1.72;100.00
16834;BME280;8533;48.426;10.868;2023-01-28T01:36:03;96546.84;;;-1.70;100.00
16834;BME280;8533;48.426;10.868;2023-01-28T01:38:30;96544.28;;;-1.70;100.00
16834;BME280;8533;48.426;10.868;2023-01-28T01:40:58;96542.20;;;-1.71;100.00
16834;BME280;8533;48.426;10.868;2023-01-28T01:43:47;96545.55;;;-1.66;100.00
16834;BME280;8533;48.426;10.868;2023-01-28T01:46:18;96544.12;;;-1.65;100.00
16834;BME280;8533;48.426;10.868;2023-01-28T01:48:45;96554.55;;;-1.62;100.00
16834;BME280;8533;48.426;10.868;2023-01-28T01:51:17;96558.88;;;-1.63;100.00
16834;BME280;8533;48.426;10.868;2023-01-28T01:53:47;96559.67;;;-1.70;100.00
16834;BME280;8533;48.426;10.868;2023-01-28T01:56:18;96565.89;;;-1.69;100.00
16834;BME280;8533;48.426;10.868;2023-01-28T01:58:48;96562.52;;;-1.69;100.00
16834;BME280;8533;48.426;10.868;2023-01-28T02:01:17;96558.86;;;-1.71;100.00
16834;BME280;8533;48.426;10.868;2023-01-28T02:06:28;96553.72;;;-1.67;100.00
16834;BME280;8533;48.426;10.868;2023-01-28T02:08:57;96552.59;;;-1.68;100.00
16834;BME280;8533;48.426;10.868;2023-01-28T02:11:29;96549.72;;;-1.73;100.00
16834;BME280;8533;48.426;10.868;2023-01-28T02:14:00;96552.58;;;-1.76;100.00
16834;BME280;8533;48.426;10.868;2023-01-28T02:16:29;96557.56;;;-1.75;100.00
16834;BME280;8533;48.426;10.868;2023-01-28T02:18:57;96558.20;;;-1.69;100.00
16834;BME280;8533;48.426;10.868;2023-01-28T02:21:44;96557.74;;;-1.64;100.00
16834;BME280;8533;48.426;10.868;2023-01-28T02:24:33;96550.19;;;-1.70;100.00
16834;BME280;8533;48.426;10.868;2023-01-28T02:30:06;96563.34;;;-1.73;100.00
16834;BME280;8533;48.426;10.868;2023-01-28T02:32:52;96559.48;;;-1.69;100.00
16834;BME280;8533;48.426;10.868;2023-01-28T02:35:27;96560.94;;;-1.66;100.00
16834;BME280;8533;48.426;10.868;2023-01-28T02:37:53;96565.27;;;-1.71;100.00
16834;BME280;8533;48.426;10.868;2023-01-28T02:40:29;96574.39;;;-1.68;100.00
16834;BME280;8533;48.426;10.868;2023-01-28T02:42:58;96570.22;;;-1.69;100.00
16834;BME280;8533;48.426;10.868;2023-01-28T02:45:31;96579.37;;;-1.71;100.00
16834;BME280;8533;48.426;10.868;2023-01-28T02:48:18;96581.75;;;-1.69;100.00
16834;BME280;8533;48.426;10.868;2023-01-28T02:51:01;96573.91;;;-1.68;100.00
16834;BME280;8533;48.426;10.868;2023-01-28T02:53:39;96575.19;;;-1.68;100.00
16834;BME280;8533;48.426;10.868;2023-01-28T03:01:55;96574.87;;;-1.69;100.00
16834;BME280;8533;48.426;10.868;2023-01-28T03:04:31;96570.06;;;-1.68;100.00
16834;BME280;8533;48.426;10.868;2023-01-28T03:06:57;96572.95;;;-1.67;100.00
16834;BME280;8533;48.426;10.868;2023-01-28T03:09:25;96569.77;;;-1.65;100.00
16834;BME280;8533;48.426;10.868;2023-01-28T03:11:55;96567.83;;;-1.67;100.00
16834;BME280;8533;48.426;10.868;2023-01-28T03:14:41;96570.72;;;-1.66;100.00
16834;BME280;8533;48.426;10.868;2023-01-28T03:17:39;96571.52;;;-1.65;100.00
16834;BME280;8533;48.426;10.868;2023-01-28T03:20:22;96573.45;;;-1.63;100.00
16834;BME280;8533;48.426;10.868;2023-01-28T03:23:10;96567.20;;;-1.65;100.00
16834;BME280;8533;48.426;10.868;2023-01-28T03:25:58;96576.64;;;-1.61;100.00
16834;BME280;8533;48.426;10.868;2023-01-28T03:28:45;96577.30;;;-1.63;100.00
16834;BME280;8533;48.426;10.868;2023-01-28T03:31:32;96575.86;;;-1.58;100.00
16834;BME280;8533;48.426;10.868;2023-01-28T03:34:20;96580.34;;;-1.64;100.00
16834;BME280;8533;48.426;10.868;2023-01-28T03:37:07;96580.34;;;-1.64;100.00
16834;BME280;8533;48.426;10.868;2023-01-28T03:39:35;96586.91;;;-1.65;100.00
16834;BME280;8533;48.426;10.868;2023-01-28T03:42:07;96580.48;;;-1.61;100.00
16834;BME280;8533;48.426;10.868;2023-01-28T03:44:34;96587.37;;;-1.62;100.00
16834;BME280;8533;48.426;10.868;2023-01-28T03:47:23;96585.14;;;-1.61;100.00
16834;BME280;8533;48.426;10.868;2023-01-28T03:49:52;96592.52;;;-1.58;100.00
16834;BME280;8533;48.426;10.868;2023-01-28T03:52:22;96593.31;;;-1.61;100.00
16834;BME280;8533;48.426;10.868;2023-01-28T03:54:50;96594.11;;;-1.61;100.00
16834;BME280;8533;48.426;10.868;2023-01-28T03:57:25;96591.73;;;-1.62;100.00
16834;BME280;8533;48.426;10.868;2023-01-28T03:59:49;96595.24;;;-1.59;100.00
16834;BME280;8533;48.426;10.868;2023-01-28T04:02:19;96592.84;;;-1.65;100.00
16834;BME280;8533;48.426;10.868;2023-01-28T04:04:48;96591.73;;;-1.62;100.00
16834;BME280;8533;48.426;10.868;2023-01-28T04:07:16;96599.72;;;-1.61;100.00
16834;BME280;8533;48.426;10.868;2023-01-28T04:09:44;96599.72;;;-1.61;100.00
16834;BME280;8533;48.426;10.868;2023-01-28T04:12:11;96605.18;;;-1.64;100.00
16834;BME280;8533;48.426;10.868;2023-01-28T04:14:38;96597.64;;;-1.66;100.00
16834;BME280;8533;48.426;10.868;2023-01-28T04:17:07;96603.90;;;-1.64;100.00
16834;BME280;8533;48.426;10.868;2023-01-28T04:19:36;96601.97;;;-1.66;100.00
16834;BME280;8533;48.426;10.868;2023-01-28T04:22:09;96600.38;;;-1.63;100.00
16834;BME280;8533;48.426;10.868;2023-01-28T04:24:36;96599.09;;;-1.63;100.00
16834;BME280;8533;48.426;10.868;2023-01-28T04:27:03;96597.80;;;-1.59;100.00
16834;BME280;8533;48.426;10.868;2023-01-28T04:29:31;96606.78;;;-1.59;100.00
16834;BME280;8533;48.426;10.868;2023-01-28T04:31:58;96612.06;;;-1.65;100.00
16834;BME280;8533;48.426;10.868;2023-01-28T04:34:26;96616.09;;;-1.62;100.00
16834;BME280;8533;48.426;10.868;2023-01-28T04:36:53;96615.58;;;-1.62;100.00
16834;BME280;8533;48.426;10.868;2023-01-28T04:39:21;96617.99;;;-1.60;100.00
16834;BME280;8533;48.426;10.868;2023-01-28T04:41:48;96623.80;;;-1.54;100.00
16834;BME280;8533;48.426;10.868;2023-01-28T04:44:16;96622.82;;;-1.57;100.00
16834;BME280;8533;48.426;10.868;2023-01-28T04:46:43;96623.14;;;-1.56;100.00
16834;BME280;8533;48.426;10.868;2023-01-28T04:49:11;96627.78;;;-1.64;100.00
16834;BME280;8533;48.426;10.868;2023-01-28T04:51:38;96620.70;;;-1.62;100.00
16834;BME280;8533;48.426;10.868;2023-01-28T04:54:05;96633.38;;;-1.60;100.00
16834;BME280;8533;48.426;10.868;2023-01-28T04:56:33;96632.09;;;-1.60;100.00
16834;BME280;8533;48.426;10.868;2023-01-28T04:59:00;96635.80;;;-1.63;100.00
16834;BME280;8533;48.426;10.868;2023-01-28T05:01:28;96639.80;;;-1.64;100.00
16834;BME280;8533;48.426;10.868;2023-01-28T05:03:56;96632.58;;;-1.61;100.00
16834;BME280;8533;48.426;10.868;2023-01-28T05:06:23;96643.63;;;-1.60;100.00
16834;BME280;8533;48.426;10.868;2023-01-28T05:08:50;96639.79;;;-1.60;100.00
16834;BME280;8533;48.426;10.868;2023-01-28T05:11:18;96643.16;;;-1.60;100.00
16834;BME280;8533;48.426;10.868;2023-01-28T05:13:45;96648.77;;;-1.60;100.00
16834;BME280;8533;48.426;10.868;2023-01-28T05:16:13;96647.66;;;-1.58;100.00
16834;BME280;8533;48.426;10.868;2023-01-28T05:18:41;96649.41;;;-1.58;100.00
16834;BME280;8533;48.426;10.868;2023-01-28T05:21:08;96652.64;;;-1.56;100.00
16834;BME280;8533;48.426;10.868;2023-01-28T05:23:35;96649.41;;;-1.58;100.00
16834;BME280;8533;48.426;10.868;2023-01-28T05:26:03;96650.20;;;-1.62;100.00
16834;BME280;8533;48.426;10.868;2023-01-28T05:28:30;96655.17;;;-1.64;100.00
16834;BME280;8533;48.426;10.868;2023-01-28T05:31:02;96654.55;;;-1.62;100.00
16834;BME280;8533;48.426;10.868;2023-01-28T05:33:30;96657.12;;;-1.62;100.00
16834;BME280;8533;48.426;10.868;2023-01-28T05:35:58;96649.89;;;-1.59;100.00
16834;BME280;8533;48.426;10.868;2023-01-28T05:38:25;96655.83;;;-1.58;100.00
16834;BME280;8533;48.426;10.868;2023-01-28T05:40:52;96656.30;;;-1.59;100.00
16834;BME280;8533;48.426;10.868;2023-01-28T05:43:20;96664.00;;;-1.59;100.00
16834;BME280;8533;48.426;10.868;2023-01-28T05:45:47;96663.52;;;-1.58;100.00
16834;BME280;8533;48.426;10.868;2023-01-28T05:48:15;96657.59;;;-1.59;100.00
16834;BME280;8533;48.426;10.868;2023-01-28T05:50:42;96663.67;;;-1.60;100.00
16834;BME280;8533;48.426;10.868;2023-01-28T05:53:10;96661.44;;;-1.59;100.00
16834;BME280;8533;48.426;10.868;2023-01-28T05:55:37;96667.70;;;-1.57;100.00
16834;BME280;8533;48.426;10.868;2023-01-28T05:58:04;96669.78;;;-1.57;100.00
16834;BME280;8533;48.426;10.868;2023-01-28T06:00:32;96661.28;;;-1.53;100.00
16834;BME280;8533;48.426;10.868;2023-01-28T06:02:59;96661.28;;;-1.53;100.00
16834;BME280;8533;48.426;10.868;2023-01-28T06:05:27;96663.36;;;-1.52;100.00
16834;BME280;8533;48.426;10.868;2023-01-28T06:07:54;96664.95;;;-1.60;100.00
16834;BME280;8533;48.426;10.868;2023-01-28T06:10:21;96661.91;;;-1.59;100.00
16834;BME280;8533;48.426;10.868;2023-01-28T06:12:49;96660.78;;;-1.61;100.00
16834;BME280;8533;48.426;10.868;2023-01-28T06:15:16;96664.17;;;-1.56;100.00
16834;BME280;8533;48.426;10.868;2023-01-28T06:17:44;96665.58;;;-1.62;100.00
16834;BME280;8533;48.426;10.868;2023-01-28T06:20:12;96669.28;;;-1.60;100.00
16834;BME280;8533;48.426;10.868;2023-01-28T06:22:39;96672.80;;;-1.61;100.00
16834;BME280;8533;48.426;10.868;2023-01-28T06:25:07;96676.64;;;-1.61;100.00
16834;BME280;8533;48.426;10.868;2023-01-28T06:27:34;96677.48;;;-1.57;100.00
16834;BME280;8533;48.426;10.868;2023-01-28T06:30:02;96677.48;;;-1.57;100.00
16834;BME280;8533;48.426;10.868;2023-01-28T06:32:29;96681.80;;;-1.57;100.00
16834;BME280;8533;48.426;10.868;2023-01-28T06:34:57;96688.20;;;-1.57;100.00
16834;BME280;8533;48.426;10.868;2023-01-28T06:37:25;96689.19;;;-1.54;100.00
16834;BME280;8533;48.426;10.868;2023-01-28T06:39:52;96697.84;;;-1.51;100.00
16834;BME280;8533;48.426;10.868;2023-01-28T06:42:20;96698.80;;;-1.52;100.00
16834;BME280;8533;48.426;10.868;2023-01-28T06:44:47;96710.36;;;-1.48;100.00
16834;BME280;8533;48.426;10.868;2023-01-28T06:47:14;96710.81;;;-1.52;100.00
16834;BME280;8533;48.426;10.868;2023-01-28T06:49:42;96711.29;;;-1.53;100.00
16834;BME280;8533;48.426;10.868;2023-01-28T06:52:09;96713.70;;;-1.51;100.00
16834;BME280;8533;48.426;10.868;2023-01-28T06:54:37;96718.03;;;-1.52;100.00
16834;BME280;8533;48.426;10.868;2023-01-28T06:57:04;96723.48;;;-1.51;100.00
16834;BME280;8533;48.426;10.868;2023-01-28T06:59:31;96725.90;;;-1.49;100.00
16834;BME280;8533;48.426;10.868;2023-01-28T07:01:59;96729.89;;;-1.51;100.00
16834;BME280;8533;48.426;10.868;2023-01-28T07:04:26;96731.03;;;-1.49;100.00
16834;BME280;8533;48.426;10.868;2023-01-28T07:06:54;96730.25;;;-1.46;100.00
16834;BME280;8533;48.426;10.868;2023-01-28T07:09:22;96728.64;;;-1.47;100.00
16834;BME280;8533;48.426;10.868;2023-01-28T07:11:49;96735.68;;;-1.49;100.00
16834;BME280;8533;48.426;10.868;2023-01-28T07:14:17;96741.11;;;-1.52;100.00
16834;BME280;8533;48.426;10.868;2023-01-28T07:16:44;96741.11;;;-1.52;100.00
16834;BME280;8533;48.426;10.868;2023-01-28T07:19:11;96742.06;;;-1.53;100.00
16834;BME280;8533;48.426;10.868;2023-01-28T07:21:39;96743.05;;;-1.50;100.00
16834;BME280;8533;48.426;10.868;2023-01-28T07:24:06;96746.42;;;-1.49;100.00
16834;BME280;8533;48.426;10.868;2023-01-28T07:26:34;96747.55;;;-1.48;100.00
16834;BME280;8533;48.426;10.868;2023-01-28T07:29:01;96745.14;;;-1.49;100.00
16834;BME280;8533;48.426;10.868;2023-01-28T07:31:29;96751.22;;;-1.50;100.00
16834;BME280;8533;48.426;10.868;2023-01-28T07:33:56;96749.94;;;-1.50;100.00
16834;BME280;8533;48.426;10.868;2023-01-28T07:36:24;96754.30;;;-1.47;100.00
16834;BME280;8533;48.426;10.868;2023-01-28T07:38:51;96749.46;;;-1.50;100.00
16834;BME280;8533;48.426;10.868;2023-01-28T07:41:19;96755.55;;;-1.51;100.00
16834;BME280;8533;48.426;10.868;2023-01-28T07:43:46;96760.82;;;-1.52;100.00
16834;BME280;8533;48.426;10.868;2023-01-28T07:46:14;96759.87;;;-1.51;100.00
16834;BME280;8533;48.426;10.868;2023-01-28T07:48:41;96764.38;;;-1.49;100.00
16834;BME280;8533;48.426;10.868;2023-01-28T07:51:08;96763.75;;;-1.47;100.00
16834;BME280;8533;48.426;10.868;2023-01-28T07:53:36;96761.80;;;-1.49;100.00
16834;BME280;8533;48.426;10.868;2023-01-28T07:56:04;96762.94;;;-1.48;100.00
16834;BME280;8533;48.426;10.868;2023-01-28T07:58:32;96771.59;;;-1.45;100.00
16834;BME280;8533;48.426;10.868;2023-01-28T08:01:00;96770.02;;;-1.46;100.00
16834;BME280;8533;48.426;10.868;2023-01-28T08:03:28;96769.02;;;-1.45;100.00
16834;BME280;8533;48.426;10.868;2023-01-28T08:05:56;96774.99;;;-1.40;100.00
16834;BME280;8533;48.426;10.868;2023-01-28T08:08:24;96774.84;;;-1.39;100.00
16834;BME280;8533;48.426;10.868;2023-01-28T08:10:54;96779.02;;;-1.34;100.00
16834;BME280;8533;48.426;10.868;2023-01-28T08:13:21;96782.39;;;-1.29;100.00
16834;BME280;8533;48.426;10.868;2023-01-28T08:15:49;96781.77;;;-1.27;100.00
16834;BME280;8533;48.426;10.868;2023-01-28T08:18:18;96784.00;;;-1.28;100.00
16834;BME280;8533;48.426;10.868;2023-01-28T08:20:45;96792.50;;;-1.28;100.00
16834;BME280;8533;48.426;10.868;2023-01-28T08:23:15;96791.55;;;-1.27;100.00
16834;BME280;8533;48.426;10.868;2023-01-28T08:25:44;96794.30;;;-1.24;100.00
16834;BME280;8533;48.426;10.868;2023-01-28T08:28:11;96803.09;;;-1.27;100.00
16834;BME280;8533;48.426;10.868;2023-01-28T08:30:40;96793.78;;;-1.28;100.00
16834;BME280;8533;48.426;10.868;2023-01-28T08:33:09;96795.58;;;-1.24;100.00
16834;BME280;8533;48.426;10.868;2023-01-28T08:35:37;96795.42;;;-1.23;100.00
16834;BME280;8533;48.426;10.868;2023-01-28T08:38:05;96799.58;;;-1.26;100.00
16834;BME280;8533;48.426;10.868;2023-01-28T08:40:34;96801.19;;;-1.21;100.00
16834;BME280;8533;48.426;10.868;2023-01-28T08:43:01;96798.14;;;-1.20;100.00
16834;BME280;8533;48.426;10.868;2023-01-28T08:45:29;96805.21;;;-1.18;100.00
16834;BME280;8533;48.426;10.868;2023-01-28T08:47:59;96800.37;;;-1.21;100.00
16834;BME280;8533;48.426;10.868;2023-01-28T08:50:30;96802.80;;;-1.24;100.00
16834;BME280;8533;48.426;10.868;2023-01-28T08:53:01;96803.12;;;-1.23;100.00
16834;BME280;8533;48.426;10.868;2023-01-28T08:55:29;96806.17;;;-1.23;100.00
16834;BME280;8533;48.426;10.868;2023-01-28T08:58:09;96809.87;;;-1.18;100.00
16834;BME280;8533;48.426;10.868;2023-01-28T09:00:32;96806.31;;;-1.21;100.00
16834;BME280;8533;48.426;10.868;2023-01-28T09:02:59;96803.93;;;-1.18;100.00
16834;BME280;8533;48.426;10.868;2023-01-28T09:05:26;96807.16;;;-1.16;100.00
16834;BME280;8533;48.426;10.868;2023-01-28T09:07:55;96807.00;;;-1.14;100.00
16834;BME280;8533;48.426;10.868;2023-01-28T09:10:22;96802.85;;;-1.07;100.00
16834;BME280;8533;48.426;10.868;2023-01-28T09:12:50;96801.56;;;-1.03;100.00
16834;BME280;8533;48.426;10.868;2023-01-28T09:15:17;96817.80;;;-0.99;100.00
16834;BME280;8533;48.426;10.868;2023-01-28T09:17:45;96816.03;;;-0.94;100.00
16834;BME280;8533;48.426;10.868;2023-01-28T09:20:12;96810.59;;;-0.87;100.00
16834;BME280;8533;48.426;10.868;2023-01-28T09:22:40;96818.30;;;-0.91;100.00
16834;BME280;8533;48.426;10.868;2023-01-28T09:25:07;96813.49;;;-0.90;100.00
16834;BME280;8533;48.426;10.868;2023-01-28T09:27:35;96809.19;;;-0.82;100.00
16834;BME280;8533;48.426;10.868;2023-01-28T09:30:03;96808.98;;;-0.88;100.00
16834;BME280;8533;48.426;10.868;2023-01-28T09:32:30;96817.37;;;-0.82;100.00
16834;BME280;8533;48.426;10.868;2023-01-28T09:34:59;96815.42;;;-0.80;100.00
16834;BME280;8533;48.426;10.868;2023-01-28T09:37:26;96819.12;;;-0.79;100.00
16834;BME280;8533;48.426;10.868;2023-01-28T09:39:53;96828.30;;;-0.68;100.00
16834;BME280;8533;48.426;10.868;2023-01-28T09:42:37;96830.23;;;-0.62;100.00
16834;BME280;8533;48.426;10.868;2023-01-28T09:50:14;96833.61;;;-0.65;100.00
16834;BME280;8533;48.426;10.868;2023-01-28T09:52:40;96831.98;;;-0.74;100.00
16834;BME280;8533;48.426;10.868;2023-01-28T09:55:22;96834.41;;;-0.61;100.00
16834;BME280;8533;48.426;10.868;2023-01-28T09:57:55;96835.36;;;-0.74;100.00
16834;BME280;8533;48.426;10.868;2023-01-28T10:00:23;96824.75;;;-0.71;100.00
16834;BME280;8533;48.426;10.868;2023-01-28T10:02:59;96829.58;;;-0.64;100.00
16834;BME280;8533;48.426;10.868;2023-01-28T10:05:41;96826.22;;;-0.56;100.00
16834;BME280;8533;48.426;10.868;2023-01-28T10:08:21;96826.23;;;-0.52;100.00
16834;BME280;8533;48.426;10.868;2023-01-28T10:10:52;96822.09;;;-0.41;100.00
16834;BME280;8533;48.426;10.868;2023-01-28T10:13:44;96821.09;;;-0.48;100.00
16834;BME280;8533;48.426;10.868;2023-01-28T10:16:30;96817.91;;;-0.42;100.00
16834;BME280;8533;48.426;10.868;2023-01-28T10:19:21;96811.32;;;-0.36;100.00
16834;BME280;8533;48.426;10.868;2023-01-28T10:22:00;96811.97;;;-0.34;100.00
16834;BME280;8533;48.426;10.868;2023-01-28T10:24:42;96812.77;;;-0.22;100.00
16834;BME280;8533;48.426;10.868;2023-01-28T10:29:42;96815.48;;;-0.31;100.00
16834;BME280;8533;48.426;10.868;2023-01-28T10:32:23;96815.00;;;-0.31;100.00
16834;BME280;8533;48.426;10.868;2023-01-28T10:34:50;96818.05;;;-0.40;100.00
16834;BME280;8533;48.426;10.868;2023-01-28T10:37:19;96812.44;;;-0.31;100.00
16834;BME280;8533;48.426;10.868;2023-01-28T10:39:47;96819.05;;;-0.32;100.00
16834;BME280;8533;48.426;10.868;2023-01-28T10:42:34;96827.37;;;-0.39;100.00
16834;BME280;8533;48.426;10.868;2023-01-28T10:47:43;96827.70;;;-0.37;100.00
16834;BME280;8533;48.426;10.868;2023-01-28T10:50:21;96824.95;;;-0.40;100.00
16834;BME280;8533;48.426;10.868;2023-01-28T10:52:56;96825.77;;;-0.44;100.00
16834;BME280;8533;48.426;10.868;2023-01-28T10:55:28;96823.37;;;-0.41;100.00
16834;BME280;8533;48.426;10.868;2023-01-28T10:57:55;96814.52;;;-0.30;100.00
16834;BME280;8533;48.426;10.868;2023-01-28T11:00:27;96818.69;;;-0.46;100.00
16834;BME280;8533;48.426;10.868;2023-01-28T11:02:56;96820.30;;;-0.45;100.00
16834;BME280;8533;48.426;10.868;2023-01-28T11:05:26;96818.23;;;-0.33;100.00
16834;BME280;8533;48.426;10.868;2023-01-28T11:10:35;96821.91;;;-0.31;100.00
16834;BME280;8533;48.426;10.868;2023-01-28T11:13:04;96818.70;;;-0.29;100.00
16834;BME280;8533;48.426;10.868;2023-01-28T11:15:32;96816.46;;;-0.12;100.00
16834;BME280;8533;48.426;10.868;2023-01-28T11:18:03;96813.09;;;-0.21;100.00
16834;BME280;8533;48.426;10.868;2023-01-28T11:20:37;96804.55;;;0.11;100.00
16834;BME280;8533;48.426;10.868;2023-01-28T11:23:06;96804.20;;;0.26;100.00
16834;BME280;8533;48.426;10.868;2023-01-28T11:25:38;96800.49;;;0.25;100.00
16834;BME280;8533;48.426;10.868;2023-01-28T11:28:14;96801.32;;;0.21;100.00
16834;BME280;8533;48.426;10.868;2023-01-28T11:30:37;96801.00;;;0.20;100.00
16834;BME280;8533;48.426;10.868;2023-01-28T11:33:26;96805.17;;;0.17;100.00
16834;BME280;8533;48.426;10.868;2023-01-28T11:36:02;96804.58;;;-0.01;100.00
16834;BME280;8533;48.426;10.868;2023-01-28T11:38:28;96802.14;;;0.02;100.00
16834;BME280;8533;48.426;10.868;2023-01-28T11:40:58;96807.78;;;-0.03;100.00
16834;BME280;8533;48.426;10.868;2023-01-28T11:43:29;96806.66;;;-0.05;100.00
16834;BME280;8533;48.426;10.868;2023-01-28T11:46:16;96809.86;;;0.02;100.00
16834;BME280;8533;48.426;10.868;2023-01-28T11:48:41;96802.31;;;0.04;100.00
16834;BME280;8533;48.426;10.868;2023-01-28T11:51:18;96805.52;;;0.02;100.00
16834;BME280;8533;48.426;10.868;2023-01-28T11:56:52;96809.16;;;0.36;100.00
16834;BME280;8533;48.426;10.868;2023-01-28T11:59:44;96806.95;;;0.09;100.00
16834;BME280;8533;48.426;10.868;2023-01-28T12:07:53;96814.67;;;0.13;100.00
16834;BME280;8533;48.426;10.868;2023-01-28T12:13:19;96812.61;;;0.08;100.00
16834;BME280;8533;48.426;10.868;2023-01-28T12:16:02;96812.91;;;0.01;100.00
16834;BME280;8533;48.426;10.868;2023-01-28T12:18:39;96815.48;;;0.01;100.00
16834;BME280;8533;48.426;10.868;2023-01-28T12:21:04;96811.15;;;-0.15;100.00
16834;BME280;8533;48.426;10.868;2023-01-28T12:23:41;96808.11;;;-0.10;100.00
16834;BME280;8533;48.426;10.868;2023-01-28T12:28:55;96806.19;;;0.00;100.00
16834;BME280;8533;48.426;10.868;2023-01-28T12:36:55;96809.08;;;-0.11;100.00
16834;BME280;8533;48.426;10.868;2023-01-28T12:39:51;96804.91;;;0.00;100.00
16834;BME280;8533;48.426;10.868;2023-01-28T12:42:18;96804.91;;;0.00;100.00
16834;BME280;8533;48.426;10.868;2023-01-28T12:44:57;96803.92;;;0.05;100.00
16834;BME280;8533;48.426;10.868;2023-01-28T12:47:30;96803.10;;;0.00;100.00
16834;BME280;8533;48.426;10.868;2023-01-28T12:50:01;96794.62;;;0.00;100.00
16834;BME280;8533;48.426;10.868;2023-01-28T12:52:35;96799.08;;;0.10;100.00
16834;BME280;8533;48.426;10.868;2023-01-28T12:57:39;96796.03;;;0.03;100.00
16834;BME280;8533;48.426;10.868;2023-01-28T13:00:18;96787.67;;;0.00;100.00
16834;BME280;8533;48.426;10.868;2023-01-28T13:02:49;96793.79;;;0.04;100.00
16834;BME280;8533;48.426;10.868;2023-01-28T13:05:16;96795.72;;;0.06;100.00
16834;BME280;8533;48.426;10.868;2023-01-28T13:07:56;96792.49;;;0.12;100.00
16834;BME280;8533;48.426;10.868;2023-01-28T13:15:41;96811.31;;;0.04;100.00
16834;BME280;8533;48.426;10.868;2023-01-28T13:18:04;96804.08;;;0.04;100.00
16834;BME280;8533;48.426;10.868;2023-01-28T13:20:46;96807.45;;;0.04;100.00
16834;BME280;8533;48.426;10.868;2023-01-28T13:25:53;96809.22;;;0.04;100.00
16834;BME280;8533;48.426;10.868;2023-01-28T13:28:27;96807.28;;;0.02;100.00
16834;BME280;8533;48.426;10.868;2023-01-28T13:31:08;96812.28;;;-0.01;100.00
16834;BME280;8533;48.426;10.868;2023-01-28T13:34:03;96808.44;;;-0.01;100.00
16834;BME280;8533;48.426;10.868;2023-01-28T13:36:36;96803.90;;;0.09;100.00
16834;BME280;8533;48.426;10.868;2023-01-28T13:42:06;96815.33;;;-0.06;100.00
16834;BME280;8533;48.426;10.868;2023-01-28T13:46:58;96817.24;;;0.00;100.00
16834;BME280;8533;48.426;10.868;2023-01-28T13:49:49;96819.03;;;-0.04;100.00
16834;BME280;8533;48.426;10.868;2023-01-28T13:54:55;96822.56;;;-0.05;100.00
16834;BME280;8533;48.426;10.868;2023-01-28T13:57:46;96820.16;;;-0.11;100.00
16834;BME280;8533;48.426;10.868;2023-01-28T14:03:34;96826.77;;;-0.16;100.00
16834;BME280;8533;48.426;10.868;2023-01-28T14:17:43;96841.52;;;-0.14;100.00
16834;BME280;8533;48.426;10.868;2023-01-28T14:20:21;96841.20;;;-0.11;100.00
16834;BME280;8533;48.426;10.868;2023-01-28T14:22:48;96847.95;;;-0.10;100.00
16834;BME280;8533;48.426;10.868;2023-01-28T14:25:19;96845.39;;;-0.18;100.00
16834;BME280;8533;48.426;10.868;2023-01-28T14:27:49;96853.56;;;-0.23;100.00